aviador You're here:

LZSL Decoded Metar

SLIAC in SLOVAKIA
Report Time2018-02-20 03:30:00
UTC Time2018-02-20 03:45:53
Flight Rules mvfr MVFR
WindCalm
Visibility6000 m
Phenomena:N/A
Clouds:N/A
Expected CloudBase > 800 ft AGL from Temp-Dew spread
CeilingNone
Temp-6°C (ISA -19)
Dew Point-8°C (86% RH)
AAT-8.9°C
QNH1016 hPa
Density Alt-1,368 ft
Elevation1,027 ft
Report Wrong Elevation
Raw Report
LZSL 200330Z 00000KT 6000 NSC M06/M08 Q1016=

Extra information for LZSL:More info

Metar Taf Metar & Taf Last 4 Metars F.Rules Stats Wind Profile Meteogram Temp Stats Airport Information Weather charts Add Link Nearby VenuesMetar ALERT Operation Metar Decoded Social comments